Time;durP1;ratioP1;P1;durP2;ratioP2;P2;SDS_P1;SDS_P2;PMS_P1;PMS_P2;Temp;Humidity;BMP_temperature;BMP_pressure;BME280_temperature;BME280_humidity;BME280_pressure;Samples;Min_cycle;Max_cycle;Signal;HPM_P1;HPM_P2
2022/03/22 00:00:13;;;;;;;5.18;3.55;;;19.40;30.90;;;;;;5168680;27;47118;-16
2022/03/22 00:02:39;;;;;;;4.03;3.50;;;19.40;31.00;;;;;;5168543;27;46888;-16
2022/03/22 00:05:06;;;;;;;3.75;3.25;;;19.40;31.00;;;;;;5168655;27;46922;-16
2022/03/22 00:07:33;;;;;;;5.45;3.80;;;19.40;31.00;;;;;;5168075;27;48771;-15
2022/03/22 00:10:00;;;;;;;5.22;3.28;;;19.40;31.00;;;;;;5168022;27;46766;-17
2022/03/22 00:12:27;;;;;;;4.88;3.45;;;19.40;31.00;;;;;;5167960;27;47218;-16
2022/03/22 00:14:53;;;;;;;4.15;3.63;;;19.40;31.10;;;;;;5168448;27;46894;-16
2022/03/22 00:17:21;;;;;;;4.80;3.60;;;19.40;31.10;;;;;;5168074;27;48040;-15
2022/03/22 00:19:48;;;;;;;3.35;3.05;;;19.40;31.20;;;;;;5168387;27;46890;-16
2022/03/22 00:22:15;;;;;;;5.38;3.30;;;19.30;31.00;;;;;;5168320;27;46819;-16
2022/03/22 00:24:42;;;;;;;5.55;3.40;;;19.30;31.00;;;;;;5168296;27;46885;-15
2022/03/22 00:27:08;;;;;;;3.92;3.53;;;19.30;31.10;;;;;;5168300;27;48235;-16
2022/03/22 00:29:35;;;;;;;4.32;3.00;;;19.30;31.10;;;;;;5168276;27;46916;-16
2022/03/22 00:32:02;;;;;;;3.58;3.28;;;19.20;31.10;;;;;;5168311;27;46972;-15
2022/03/22 00:34:31;;;;;;;4.32;3.25;;;19.30;31.20;;;;;;5168172;27;46866;-15
2022/03/22 00:36:58;;;;;;;4.72;3.35;;;19.30;31.10;;;;;;5168030;27;48202;-16
2022/03/22 00:39:25;;;;;;;5.13;3.75;;;19.30;31.20;;;;;;5167911;27;46888;-15
2022/03/22 00:41:53;;;;;;;5.40;3.67;;;19.20;31.10;;;;;;5168112;27;46933;-18
2022/03/22 00:44:20;;;;;;;3.42;2.83;;;19.20;31.20;;;;;;5168355;27;47295;-16
2022/03/22 00:46:47;;;;;;;3.83;3.40;;;19.20;31.20;;;;;;5167819;27;48106;-16
2022/03/22 00:49:14;;;;;;;4.85;3.20;;;19.20;31.20;;;;;;5167956;27;47129;-16
2022/03/22 00:51:42;;;;;;;3.83;3.10;;;19.20;31.20;;;;;;5167795;27;47010;-15
2022/03/22 00:54:09;;;;;;;5.30;3.20;;;19.20;31.20;;;;;;5168047;27;46764;-16
2022/03/22 01:02:01;;;;;;;7.05;3.75;;;19.10;31.10;;;;;;5165086;27;47052;-15
2022/03/22 01:04:27;;;;;;;5.05;3.35;;;19.10;31.10;;;;;;5168055;27;47091;-16
2022/03/22 01:06:55;;;;;;;3.97;3.58;;;19.10;31.20;;;;;;5167484;27;47968;-18
2022/03/22 01:09:22;;;;;;;4.55;3.40;;;19.10;31.20;;;;;;5167774;27;47458;-15
2022/03/22 01:11:49;;;;;;;5.32;3.65;;;19.10;31.20;;;;;;5167801;27;46828;-15
2022/03/22 01:14:16;;;;;;;3.90;3.50;;;19.10;31.20;;;;;;5167743;27;47076;-15
2022/03/22 01:16:42;;;;;;;4.70;3.75;;;19.10;31.20;;;;;;5167304;27;47877;-15
2022/03/22 01:19:09;;;;;;;4.22;3.30;;;19.10;31.20;;;;;;5167204;27;46913;-16
2022/03/22 01:21:37;;;;;;;5.90;3.47;;;19.10;31.30;;;;;;5170209;27;46835;-16
2022/03/22 01:24:07;;;;;;;3.63;3.15;;;19.00;31.30;;;;;;5171050;27;46850;-16
2022/03/22 01:26:34;;;;;;;5.13;3.25;;;19.00;31.30;;;;;;5170788;27;48878;-16
2022/03/22 01:29:00;;;;;;;5.90;3.83;;;19.00;31.30;;;;;;5170952;27;46772;-15
2022/03/22 01:31:27;;;;;;;4.38;3.30;;;19.00;31.30;;;;;;5170844;27;46803;-16
2022/03/22 01:33:54;;;;;;;4.32;3.58;;;19.00;31.30;;;;;;5171187;27;47376;-16
2022/03/22 01:36:22;;;;;;;4.80;3.60;;;19.00;31.30;;;;;;5170579;27;48014;-15
2022/03/22 01:38:49;;;;;;;4.85;3.70;;;19.00;31.40;;;;;;5170851;27;46951;-16
2022/03/22 01:41:17;;;;;;;4.68;3.60;;;19.00;31.50;;;;;;5171055;27;46816;-17
2022/03/22 01:43:43;;;;;;;4.63;3.47;;;18.90;31.40;;;;;;5170397;27;46807;-15
2022/03/22 01:46:10;;;;;;;5.68;3.55;;;18.90;31.40;;;;;;5170707;27;48808;-15
2022/03/22 01:48:37;;;;;;;3.97;3.60;;;18.90;31.50;;;;;;5170346;27;46893;-16
2022/03/22 01:51:05;;;;;;;3.90;3.40;;;18.90;31.40;;;;;;5170785;27;46823;-16
2022/03/22 01:53:31;;;;;;;4.07;3.67;;;18.80;31.40;;;;;;5170411;27;47040;-16
2022/03/22 01:55:58;;;;;;;4.85;3.40;;;18.90;31.50;;;;;;5170260;27;48801;-15
2022/03/22 01:58:26;;;;;;;4.88;4.05;;;18.80;31.50;;;;;;5170311;27;47451;-15
2022/03/22 02:05:51;;;;;;;5.43;3.70;;;18.80;31.50;;;;;;5170391;27;47065;-15
2022/03/22 02:06:30;;;;;;;4.03;3.50;;;18.80;31.50;;;;;;5167558;27;47064;-15
2022/03/22 02:08:56;;;;;;;5.90;3.97;;;18.80;31.50;;;;;;5170079;27;46867;-16
2022/03/22 02:11:23;;;;;;;4.38;3.65;;;18.80;31.50;;;;;;5170313;27;46896;-16
2022/03/22 02:13:52;;;;;;;4.25;3.85;;;18.80;32.20;;;;;;5170081;27;46799;-16
2022/03/22 02:16:19;;;;;;;4.88;3.67;;;18.70;31.60;;;;;;5169893;27;47883;-16
2022/03/22 02:18:45;;;;;;;6.45;4.18;;;18.70;31.60;;;;;;5169708;27;46958;-15
2022/03/22 02:21:15;;;;;;;5.65;3.90;;;18.70;31.60;;;;;;5170092;27;46987;-15
2022/03/22 02:23:51;;;;;;;4.05;3.65;;;18.70;31.50;;;;;;5170039;27;46792;-15
2022/03/22 02:26:18;;;;;;;5.65;4.15;;;18.70;31.60;;;;;;5170107;27;47066;-16
2022/03/22 02:28:44;;;;;;;5.07;3.90;;;18.70;31.60;;;;;;5170048;27;46960;-15
2022/03/22 02:31:12;;;;;;;5.38;4.20;;;18.70;31.60;;;;;;5169884;27;46932;-17
2022/03/22 02:33:41;;;;;;;6.10;3.80;;;18.70;31.70;;;;;;5170105;27;46847;-15
2022/03/22 02:36:08;;;;;;;4.72;3.90;;;18.60;31.60;;;;;;5170025;27;48058;-15
2022/03/22 02:38:35;;;;;;;5.57;3.92;;;18.60;31.70;;;;;;5169365;27;47440;-16
2022/03/22 02:41:03;;;;;;;6.22;3.88;;;18.60;31.70;;;;;;5169593;27;46861;-16
2022/03/22 02:43:30;;;;;;;6.35;4.05;;;18.60;31.70;;;;;;5169580;27;46893;-15
2022/03/22 02:45:58;;;;;;;5.63;3.92;;;18.60;31.70;;;;;;5169779;27;47823;-16
2022/03/22 02:48:24;;;;;;;5.40;4.22;;;18.60;31.80;;;;;;5169654;27;47450;-16
2022/03/22 02:50:51;;;;;;;6.47;4.25;;;18.50;31.80;;;;;;5169591;27;46972;-16
2022/03/22 02:53:18;;;;;;;5.53;4.25;;;18.50;31.70;;;;;;5169725;27;46975;-16
2022/03/22 02:55:44;;;;;;;5.72;4.05;;;18.50;31.70;;;;;;5169599;27;47065;-15
2022/03/22 02:58:13;;;;;;;7.97;3.95;;;18.50;31.70;;;;;;5168936;27;46778;-16
2022/03/22 03:00:39;;;;;;;5.03;3.70;;;18.50;31.60;;;;;;5169335;27;46878;-16
2022/03/22 03:03:06;;;;;;;6.28;4.18;;;18.50;31.70;;;;;;5169468;27;47215;-16
2022/03/22 03:05:33;;;;;;;4.68;3.58;;;18.40;31.70;;;;;;5169482;27;47678;-17
2022/03/22 03:08:00;;;;;;;4.45;4.05;;;18.40;31.70;;;;;;5168919;27;46918;-15
2022/03/22 03:10:27;;;;;;;5.38;4.53;;;18.40;31.70;;;;;;5169458;27;46827;-16
2022/03/22 03:12:58;;;;;;;4.10;3.65;;;18.40;31.70;;;;;;5168988;27;47289;-15
2022/03/22 03:15:26;;;;;;;5.55;4.00;;;18.40;31.70;;;;;;5169330;27;48106;-15
2022/03/22 03:17:53;;;;;;;4.32;3.92;;;18.40;31.70;;;;;;5169241;27;47209;-17
2022/03/22 03:20:20;;;;;;;4.75;4.05;;;18.40;31.80;;;;;;5169191;27;46906;-17
2022/03/22 03:22:47;;;;;;;4.57;3.53;;;18.40;31.70;;;;;;5168960;27;46967;-15
2022/03/22 03:25:13;;;;;;;5.22;3.75;;;18.40;31.80;;;;;;5169287;27;48268;-16
2022/03/22 03:27:40;;;;;;;4.18;3.78;;;18.30;31.80;;;;;;5168667;27;47469;-16
2022/03/22 03:30:07;;;;;;;5.43;4.10;;;18.30;31.70;;;;;;5169024;27;46885;-16
2022/03/22 03:32:36;;;;;;;5.45;4.18;;;18.30;31.70;;;;;;5168994;27;47260;-15
2022/03/22 03:35:03;;;;;;;4.32;3.70;;;18.30;31.70;;;;;;5168952;27;48365;-15
2022/03/22 03:37:31;;;;;;;4.25;3.85;;;18.30;31.70;;;;;;5168313;27;46811;-16
2022/03/22 03:39:58;;;;;;;4.25;3.85;;;18.30;31.80;;;;;;5169006;27;46853;-15
2022/03/22 03:42:25;;;;;;;6.57;3.70;;;18.30;31.80;;;;;;5168642;27;46900;-16
2022/03/22 03:47:37;;;;;;;5.05;3.83;;;18.30;31.70;;;;;;5166151;27;46958;-15
2022/03/22 03:50:06;;;;;;;4.50;3.88;;;18.20;31.80;;;;;;5168560;27;46978;-15
2022/03/22 03:52:33;;;;;;;4.40;3.70;;;18.20;31.80;;;;;;5169028;27;47058;-16
2022/03/22 03:55:00;;;;;;;5.05;3.83;;;18.20;31.80;;;;;;5168366;27;47987;-16
2022/03/22 03:57:27;;;;;;;5.03;3.80;;;18.20;31.70;;;;;;5168428;27;46931;-16
2022/03/22 03:59:54;;;;;;;6.80;3.72;;;18.20;31.70;;;;;;5168828;27;46949;-16
2022/03/22 04:02:21;;;;;;;4.80;3.70;;;18.20;31.70;;;;;;5168545;27;46870;-16
2022/03/22 04:04:51;;;;;;;4.95;3.50;;;18.20;31.70;;;;;;5168627;27;48864;-15
2022/03/22 04:07:18;;;;;;;5.88;3.97;;;18.10;31.70;;;;;;5168507;27;46953;-15
2022/03/22 04:09:45;;;;;;;5.03;3.85;;;18.10;31.80;;;;;;5168463;27;46812;-16
2022/03/22 04:12:13;;;;;;;4.53;3.60;;;18.10;31.80;;;;;;5168442;27;47259;-16
2022/03/22 04:14:39;;;;;;;5.28;3.90;;;18.10;31.70;;;;;;5168124;27;49051;-16
2022/03/22 04:17:07;;;;;;;6.30;3.60;;;18.10;31.70;;;;;;5168556;27;47446;-15
2022/03/22 04:19:35;;;;;;;3.33;3.03;;;18.00;31.70;;;;;;5168177;27;47045;-16
2022/03/22 04:22:03;;;;;;;3.63;3.33;;;18.10;31.70;;;;;;5168255;27;47150;-15
2022/03/22 04:24:30;;;;;;;4.13;3.47;;;18.00;31.60;;;;;;5167979;27;48215;-15
2022/03/22 04:32:41;;;;;;;4.15;3.50;;;18.00;31.60;;;;;;5168247;27;47247;-15
2022/03/22 04:32:45;;;;;;;4.22;3.33;;;18.00;31.60;;;;;;5166114;27;47052;-13
2022/03/22 04:35:13;;;;;;;4.18;3.65;;;18.00;31.70;;;;;;5168191;27;47941;-13
2022/03/22 04:37:41;;;;;;;3.80;3.40;;;18.00;31.70;;;;;;5167615;27;46799;-13
2022/03/22 04:40:10;;;;;;;4.60;3.40;;;18.00;31.70;;;;;;5168271;27;46738;-13
2022/03/22 04:42:36;;;;;;;4.40;3.47;;;18.00;31.70;;;;;;5167822;27;46922;-13
2022/03/22 04:45:03;;;;;;;3.50;3.20;;;17.90;31.70;;;;;;5167746;27;48129;-15
2022/03/22 04:47:30;;;;;;;5.85;4.05;;;18.00;31.70;;;;;;5167857;27;47451;-13
2022/03/22 04:49:57;;;;;;;5.35;3.63;;;17.90;31.70;;;;;;5167866;27;46821;-13
2022/03/22 04:57:54;;;;;;;4.95;3.60;;;17.90;31.70;;;;;;5169547;27;46841;-13
2022/03/22 05:00:21;;;;;;;5.32;3.72;;;17.90;31.70;;;;;;5164992;27;47012;-14
2022/03/22 05:02:48;;;;;;;4.25;3.67;;;17.90;31.80;;;;;;5150430;27;47251;-14
2022/03/22 05:05:15;;;;;;;4.03;3.22;;;17.90;31.80;;;;;;5150101;27;49010;-13
2022/03/22 05:07:42;;;;;;;4.10;3.70;;;17.80;31.80;;;;;;5150124;27;46810;-14
2022/03/22 05:10:11;;;;;;;4.95;3.70;;;17.80;31.80;;;;;;5150479;27;46821;-14
2022/03/22 05:12:40;;;;;;;4.28;3.58;;;17.80;31.80;;;;;;5150204;27;47005;-13
2022/03/22 05:15:09;;;;;;;5.05;3.92;;;17.80;31.80;;;;;;5150251;27;48145;-14
2022/03/22 05:17:36;;;;;;;6.32;3.90;;;17.80;31.90;;;;;;5149666;27;47180;-14
2022/03/22 05:20:04;;;;;;;5.00;4.00;;;17.80;31.90;;;;;;5150172;27;46822;-14
2022/03/22 05:22:31;;;;;;;4.93;3.85;;;17.80;31.90;;;;;;5149922;27;47115;-14
2022/03/22 05:24:58;;;;;;;4.30;3.70;;;17.80;31.90;;;;;;5150145;27;48094;-12
2022/03/22 05:27:27;;;;;;;4.68;3.67;;;17.80;32.00;;;;;;5149528;27;47057;-13
2022/03/22 05:29:53;;;;;;;5.53;3.97;;;17.70;31.80;;;;;;5149990;27;46923;-14
2022/03/22 05:32:20;;;;;;;5.38;3.65;;;17.70;31.80;;;;;;5149760;27;47281;-13
2022/03/22 05:34:47;;;;;;;4.32;3.70;;;17.70;31.90;;;;;;5149638;27;46832;-15
2022/03/22 05:37:14;;;;;;;5.20;3.70;;;17.70;31.90;;;;;;5150013;27;46844;-14
2022/03/22 05:39:41;;;;;;;5.07;4.18;;;17.70;31.90;;;;;;5149865;27;46986;-14
2022/03/22 05:42:08;;;;;;;4.43;3.80;;;17.70;32.00;;;;;;5150323;27;46861;-13
2022/03/22 05:44:36;;;;;;;4.75;4.25;;;17.70;32.00;;;;;;5149595;27;46868;-14
2022/03/22 05:47:03;;;;;;;5.38;3.92;;;17.70;31.90;;;;;;5149488;27;47016;-13
2022/03/22 05:49:30;;;;;;;4.50;4.00;;;17.70;32.00;;;;;;5149854;27;46981;-13
2022/03/22 05:51:57;;;;;;;5.53;3.83;;;17.60;32.00;;;;;;5149790;27;47118;-13
2022/03/22 05:54:24;;;;;;;5.50;4.40;;;17.60;32.00;;;;;;5149574;27;46937;-13
2022/03/22 05:56:51;;;;;;;4.47;3.92;;;17.60;32.00;;;;;;5149678;27;47355;-14
2022/03/22 05:59:17;;;;;;;5.45;4.30;;;17.60;31.90;;;;;;5149487;27;46894;-13
2022/03/22 06:01:46;;;;;;;3.65;3.35;;;17.60;32.00;;;;;;5150017;27;47510;-14
2022/03/22 06:04:12;;;;;;;5.00;3.67;;;17.60;32.10;;;;;;5149120;27;48468;-14
2022/03/22 06:06:39;;;;;;;5.78;4.07;;;17.60;32.00;;;;;;5149204;27;46986;-14
2022/03/22 06:09:06;;;;;;;5.60;4.20;;;17.60;32.10;;;;;;5148926;27;46861;-14
2022/03/22 06:11:35;;;;;;;5.80;3.90;;;17.60;32.00;;;;;;5149644;27;46986;-14
2022/03/22 06:14:03;;;;;;;6.13;4.22;;;17.60;32.00;;;;;;5148780;27;48250;-14
2022/03/22 06:16:30;;;;;;;4.70;4.22;;;17.60;32.00;;;;;;5149329;27;46914;-14
2022/03/22 06:18:58;;;;;;;4.97;3.90;;;17.50;32.00;;;;;;5148722;27;46881;-13
2022/03/22 06:21:24;;;;;;;5.28;3.80;;;17.50;32.00;;;;;;5149196;27;46892;-14
2022/03/22 06:23:52;;;;;;;4.35;3.95;;;17.50;32.00;;;;;;5148801;27;48043;-15
2022/03/22 06:26:19;;;;;;;6.55;3.88;;;17.50;31.90;;;;;;5149113;27;46924;-14
2022/03/22 06:28:45;;;;;;;4.60;3.90;;;17.50;32.00;;;;;;5148633;27;46906;-14
2022/03/22 06:31:12;;;;;;;5.38;3.78;;;17.50;32.00;;;;;;5149296;27;47557;-15
2022/03/22 06:33:39;;;;;;;4.13;3.63;;;17.50;32.00;;;;;;5148850;27;48049;-14
2022/03/22 06:36:08;;;;;;;5.00;3.53;;;17.50;32.00;;;;;;5149029;27;47482;-14
2022/03/22 06:38:35;;;;;;;4.38;3.97;;;17.50;32.00;;;;;;5148449;27;46917;-15
2022/03/22 06:41:02;;;;;;;5.45;3.67;;;17.50;32.00;;;;;;5148878;27;47280;-15
2022/03/22 06:43:29;;;;;;;4.88;3.65;;;17.50;32.00;;;;;;5148370;27;47820;-14
2022/03/22 06:45:55;;;;;;;4.28;3.47;;;17.50;32.00;;;;;;5148467;27;46852;-15
2022/03/22 06:48:22;;;;;;;4.75;3.70;;;17.50;32.00;;;;;;5148510;27;46869;-14
2022/03/22 06:50:49;;;;;;;4.72;3.83;;;17.50;32.00;;;;;;5149044;27;46930;-15
2022/03/22 06:53:18;;;;;;;4.40;3.60;;;17.50;32.00;;;;;;5148308;27;47887;-14
2022/03/22 06:55:45;;;;;;;5.25;3.58;;;17.50;32.00;;;;;;5148453;27;47045;-14
2022/03/22 06:58:14;;;;;;;4.03;3.53;;;17.50;32.00;;;;;;5148335;27;46922;-14
2022/03/22 07:00:41;;;;;;;6.13;4.00;;;17.50;32.00;;;;;;5148789;27;47056;-14
2022/03/22 07:03:08;;;;;;;4.00;3.67;;;17.50;32.00;;;;;;5147485;27;47888;-14
2022/03/22 07:05:35;;;;;;;4.88;3.72;;;17.60;32.00;;;;;;5147473;27;46897;-15
2022/03/22 07:08:01;;;;;;;4.97;3.72;;;17.60;32.00;;;;;;5147983;27;46994;-14
2022/03/22 07:10:31;;;;;;;5.70;3.70;;;17.60;32.00;;;;;;5148600;27;47103;-13
2022/03/22 07:12:59;;;;;;;4.93;3.90;;;17.60;32.00;;;;;;5147613;27;46837;-14
2022/03/22 07:15:28;;;;;;;6.20;3.63;;;17.60;32.00;;;;;;5148337;27;47157;-14
2022/03/22 07:17:56;;;;;;;4.22;3.58;;;17.50;31.90;;;;;;5147020;27;46855;-15
2022/03/22 07:20:23;;;;;;;4.57;3.95;;;17.60;32.00;;;;;;5148099;27;46967;-14
2022/03/22 07:22:50;;;;;;;5.78;3.83;;;17.60;31.90;;;;;;5147657;27;47892;-14
2022/03/22 07:25:16;;;;;;;4.30;3.90;;;17.60;31.90;;;;;;5148189;27;47002;-16
2022/03/22 07:27:44;;;;;;;4.90;3.92;;;17.60;31.90;;;;;;5147523;27;46955;-14
2022/03/22 07:30:12;;;;;;;3.60;3.30;;;17.60;31.90;;;;;;5168541;27;47015;-14
2022/03/22 07:32:39;;;;;;;4.63;4.13;;;17.60;31.90;;;;;;5167278;27;49212;-15
2022/03/22 07:35:07;;;;;;;4.82;4.03;;;17.70;31.60;;;;;;5167612;27;46972;-15
2022/03/22 07:37:34;;;;;;;4.28;3.70;;;17.70;31.80;;;;;;5166975;27;47122;-14
2022/03/22 07:40:01;;;;;;;5.47;3.55;;;17.70;31.90;;;;;;5167254;27;46986;-14
2022/03/22 07:42:29;;;;;;;4.28;3.25;;;17.70;31.90;;;;;;5167305;27;47350;-14
2022/03/22 07:44:57;;;;;;;4.50;3.72;;;17.70;31.90;;;;;;5167260;27;47012;-14
2022/03/22 07:47:24;;;;;;;3.72;3.42;;;17.70;31.80;;;;;;5167150;27;46862;-14
2022/03/22 07:55:19;;;;;;;4.50;3.58;;;17.80;31.80;;;;;;5163755;27;46942;-15
2022/03/22 07:57:46;;;;;;;4.63;3.80;;;17.80;31.70;;;;;;5167704;27;46942;-14
2022/03/22 08:00:15;;;;;;;4.78;3.72;;;17.80;31.70;;;;;;5167641;27;47305;-15
2022/03/22 08:02:51;;;;;;;5.10;3.47;;;17.80;31.80;;;;;;5168263;27;48074;-15
2022/03/22 08:05:18;;;;;;;4.82;3.55;;;17.80;31.80;;;;;;5168590;27;46891;-15
2022/03/22 08:07:44;;;;;;;3.92;3.53;;;17.80;31.70;;;;;;5168357;27;46922;-14
2022/03/22 08:10:11;;;;;;;4.65;3.78;;;17.90;31.80;;;;;;5168771;27;46949;-15
2022/03/22 08:12:38;;;;;;;6.45;3.72;;;17.90;31.80;;;;;;5168036;27;48124;-14
2022/03/22 08:15:06;;;;;;;4.88;3.90;;;17.90;31.70;;;;;;5168430;27;47396;-14
2022/03/22 08:17:34;;;;;;;5.93;3.95;;;17.90;31.70;;;;;;5168150;27;47191;-15
2022/03/22 08:20:00;;;;;;;5.68;4.18;;;18.00;31.80;;;;;;5168557;27;46883;-14
2022/03/22 08:22:27;;;;;;;5.35;3.83;;;18.00;31.70;;;;;;5167999;27;48942;-15
2022/03/22 08:24:54;;;;;;;5.45;3.60;;;18.00;31.80;;;;;;5168376;27;47061;-15
2022/03/22 08:27:20;;;;;;;3.90;3.47;;;18.00;31.80;;;;;;5167831;27;46759;-14
2022/03/22 08:29:47;;;;;;;4.15;3.60;;;18.00;31.70;;;;;;5170256;27;47251;-15
2022/03/22 08:32:14;;;;;;;4.13;3.60;;;18.10;31.80;;;;;;5171577;27;48056;-15
2022/03/22 08:34:42;;;;;;;4.43;3.60;;;18.10;31.70;;;;;;5171362;27;46947;-16
2022/03/22 08:37:12;;;;;;;5.00;3.70;;;18.10;31.70;;;;;;5171951;27;46910;-14
2022/03/22 08:39:39;;;;;;;5.25;4.05;;;18.10;31.70;;;;;;5171869;27;47327;-14
2022/03/22 08:42:06;;;;;;;5.50;4.03;;;18.10;31.70;;;;;;5171758;27;46911;-14
2022/03/22 08:44:33;;;;;;;5.40;3.80;;;18.20;31.70;;;;;;5171782;27;46823;-14
2022/03/22 08:47:01;;;;;;;4.22;3.83;;;18.20;31.70;;;;;;5171553;27;46759;-15
2022/03/22 08:49:27;;;;;;;5.93;3.63;;;18.20;31.70;;;;;;5171806;27;46913;-15
2022/03/22 08:51:55;;;;;;;4.57;4.00;;;18.20;31.70;;;;;;5171649;27;49057;-14
2022/03/22 08:54:22;;;;;;;5.00;4.03;;;18.30;31.80;;;;;;5171374;27;46858;-15
2022/03/22 08:56:49;;;;;;;4.38;3.88;;;18.20;31.70;;;;;;5171884;27;46795;-15
2022/03/22 08:59:16;;;;;;;5.20;4.10;;;18.30;32.40;;;;;;5171793;27;47227;-14
2022/03/22 09:01:42;;;;;;;4.90;4.05;;;18.30;31.80;;;;;;5171623;27;47065;-15
2022/03/22 09:06:53;;;;;;;5.72;4.18;;;18.40;31.80;;;;;;5168582;27;47013;-14
2022/03/22 09:09:21;;;;;;;5.32;3.92;;;18.40;31.80;;;;;;5171605;27;46924;-15
2022/03/22 09:11:48;;;;;;;5.78;4.05;;;18.40;31.80;;;;;;5171248;27;48285;-15
2022/03/22 09:14:15;;;;;;;5.07;3.97;;;18.40;31.80;;;;;;5171084;27;46849;-15
2022/03/22 09:16:41;;;;;;;5.25;3.90;;;18.40;31.80;;;;;;5171734;27;46895;-15
2022/03/22 09:19:08;;;;;;;4.60;4.03;;;18.40;31.80;;;;;;5171363;27;46985;-15
2022/03/22 09:21:35;;;;;;;5.57;4.10;;;18.50;31.80;;;;;;5171198;27;48053;-14
2022/03/22 09:24:05;;;;;;;7.70;3.80;;;18.50;31.80;;;;;;5171233;27;47309;-14
2022/03/22 09:26:33;;;;;;;4.95;4.10;;;18.60;31.80;;;;;;5170947;27;46951;-14
2022/03/22 09:29:01;;;;;;;4.90;4.07;;;18.60;31.80;;;;;;5171233;27;46804;-14
2022/03/22 09:31:28;;;;;;;4.63;4.10;;;18.60;31.80;;;;;;5170738;27;48819;-14
2022/03/22 09:33:56;;;;;;;4.75;4.25;;;18.60;31.80;;;;;;5170779;27;46885;-15
2022/03/22 09:36:23;;;;;;;5.28;4.03;;;18.70;31.80;;;;;;5170865;27;46929;-14
2022/03/22 09:38:50;;;;;;;5.22;4.20;;;18.70;31.80;;;;;;5170770;27;46921;-14
2022/03/22 09:41:17;;;;;;;4.68;4.10;;;18.70;31.70;;;;;;5169387;27;47072;-14
2022/03/22 09:43:47;;;;;;;5.25;4.03;;;18.70;31.80;;;;;;5169487;27;46893;-15
2022/03/22 09:46:17;;;;;;;7.22;4.75;;;18.80;31.80;;;;;;5169784;27;46937;-14
2022/03/22 09:48:43;;;;;;;4.72;4.22;;;18.80;31.80;;;;;;5169772;27;46849;-15
2022/03/22 09:53:54;;;;;;;5.03;4.53;;;18.80;31.70;;;;;;5169170;27;46883;-14
2022/03/22 09:56:21;;;;;;;6.90;4.43;;;18.80;31.70;;;;;;5169833;27;46946;-14
2022/03/22 09:58:51;;;;;;;6.55;4.63;;;18.90;31.70;;;;;;5170229;27;46888;-14
2022/03/22 10:01:18;;;;;;;5.38;4.43;;;18.90;31.70;;;;;;5170477;27;48148;-15
2022/03/22 10:03:56;;;;;;;5.30;4.80;;;18.90;31.70;;;;;;5170451;27;46977;-14
2022/03/22 10:06:23;;;;;;;5.57;4.50;;;19.00;31.40;;;;;;5170346;27;46892;-15
2022/03/22 10:08:49;;;;;;;5.10;3.97;;;19.00;31.70;;;;;;5170165;27;46852;-14
2022/03/22 10:11:17;;;;;;;7.53;4.43;;;19.10;31.70;;;;;;5169224;27;48114;-14
2022/03/22 10:13:52;;;;;;;4.80;4.25;;;19.10;31.70;;;;;;5169699;27;46909;-14
2022/03/22 10:16:19;;;;;;;8.25;4.72;;;19.10;32.30;;;;;;5170423;27;46967;-14
2022/03/22 10:18:45;;;;;;;5.50;4.70;;;19.20;31.60;;;;;;5170061;27;46877;-15
2022/03/22 10:21:12;;;;;;;7.93;4.43;;;19.20;31.60;;;;;;5169969;27;46910;-15
2022/03/22 10:23:48;;;;;;;5.90;4.80;;;19.20;31.60;;;;;;5168967;27;46871;-15
2022/03/22 10:26:15;;;;;;;7.38;4.57;;;19.30;32.20;;;;;;5168698;27;47107;-15
2022/03/22 10:28:51;;;;;;;6.70;4.75;;;19.30;31.50;;;;;;5168407;27;47256;-14
2022/03/22 10:31:17;;;;;;;6.80;5.15;;;19.40;31.50;;;;;;5168360;27;48202;-15
2022/03/22 10:33:53;;;;;;;4.95;4.45;;;19.40;31.50;;;;;;5168283;27;47141;-15
2022/03/22 10:36:21;;;;;;;5.50;4.28;;;19.50;31.50;;;;;;5168619;27;46869;-15
2022/03/22 10:38:55;;;;;;;5.45;4.43;;;19.50;31.50;;;;;;5168301;27;46918;-15
2022/03/22 10:41:26;;;;;;;4.70;4.20;;;19.60;31.50;;;;;;5169107;27;49016;-14
2022/03/22 10:44:05;;;;;;;6.90;5.05;;;19.60;31.40;;;;;;5169550;27;46774;-16
2022/03/22 10:46:32;;;;;;;5.63;4.60;;;19.70;31.40;;;;;;5169727;27;46830;-14
2022/03/22 10:49:06;;;;;;;5.70;5.00;;;19.70;31.20;;;;;;5169659;27;47066;-15
2022/03/22 10:51:34;;;;;;;5.57;4.70;;;19.80;31.30;;;;;;5169752;27;49084;-15
2022/03/22 10:54:02;;;;;;;7.63;4.75;;;19.90;31.20;;;;;;5165701;27;47254;-16
2022/03/22 10:56:31;;;;;;;5.55;4.25;;;19.90;30.90;;;;;;5152504;27;47116;-15
2022/03/22 10:58:59;;;;;;;5.78;4.32;;;20.00;30.70;;;;;;5155880;27;46909;-15
2022/03/22 11:01:27;;;;;;;5.45;4.95;;;20.10;31.10;;;;;;5168238;27;49120;-15
2022/03/22 11:03:57;;;;;;;7.75;4.97;;;20.20;31.00;;;;;;5168177;27;46872;-15
2022/03/22 11:06:28;;;;;;;4.93;4.38;;;20.20;30.80;;;;;;5168597;27;46958;-15
2022/03/22 11:08:54;;;;;;;5.40;4.88;;;20.30;30.80;;;;;;5169181;27;47295;-15
2022/03/22 11:11:21;;;;;;;6.38;4.68;;;20.40;30.70;;;;;;5166054;27;48101;-15
2022/03/22 11:13:48;;;;;;;8.48;5.00;;;20.50;30.60;;;;;;5163678;27;47051;-22
2022/03/22 11:16:18;;;;;;;5.55;5.00;;;20.60;30.60;;;;;;5151161;27;47238;-21
2022/03/22 11:18:47;;;;;;;9.75;6.68;;;20.60;29.80;;;;;;5155476;27;47076;-22
2022/03/22 11:21:17;;;;;;;11.32;8.18;;;20.60;29.60;;;;;;5146475;27;48013;-21
2022/03/22 11:23:44;;;;;;;14.40;9.80;;;20.60;28.90;;;;;;5166984;27;47113;-21
2022/03/22 11:26:12;;;;;;;13.85;9.57;;;20.60;27.90;;;;;;5168803;27;47033;-22
2022/03/22 11:28:39;;;;;;;12.23;9.50;;;20.60;27.80;;;;;;5168239;27;47422;-21
2022/03/22 11:31:09;;;;;;;16.40;9.40;;;20.60;28.00;;;;;;5167951;27;48096;-21
2022/03/22 11:36:25;;;;;;;15.68;9.35;;;20.50;27.30;;;;;;5166387;27;46841;-21
2022/03/22 11:38:52;;;;;;;11.73;9.13;;;20.50;27.30;;;;;;5165320;27;46948;-21
2022/03/22 11:44:08;;;;;;;11.90;8.82;;;20.50;27.50;;;;;;5163007;27;46910;-21
2022/03/22 11:46:35;;;;;;;18.67;9.18;;;20.60;26.90;;;;;;5166971;27;46922;-21
2022/03/22 11:49:15;;;;;;;12.60;8.75;;;20.60;26.80;;;;;;5166488;27;47347;-21
2022/03/22 11:51:50;;;;;;;14.70;9.23;;;20.60;26.50;;;;;;5168388;27;49014;-20
2022/03/22 11:54:17;;;;;;;12.43;8.35;;;20.60;26.40;;;;;;5168109;27;46906;-21
2022/03/22 11:56:48;;;;;;;14.68;8.10;;;20.70;26.90;;;;;;5168519;27;46886;-20
2022/03/22 11:59:16;;;;;;;16.00;8.35;;;20.80;27.10;;;;;;5168425;27;46901;-21
2022/03/22 12:01:42;;;;;;;11.48;7.57;;;20.90;26.40;;;;;;5168396;27;47155;-21
2022/03/22 12:04:15;;;;;;;14.63;7.70;;;20.90;26.60;;;;;;5167970;27;47429;-20
2022/03/22 12:06:42;;;;;;;15.40;8.05;;;21.00;26.60;;;;;;5168202;27;46897;-20
2022/03/22 12:09:10;;;;;;;11.27;7.18;;;21.20;26.70;;;;;;5166534;27;47093;-20
2022/03/22 12:11:37;;;;;;;13.15;8.23;;;21.20;26.80;;;;;;5166405;27;47975;-21
2022/03/22 12:14:04;;;;;;;11.35;7.63;;;21.30;26.70;;;;;;5165469;27;47265;-21
2022/03/22 12:16:32;;;;;;;11.73;8.00;;;21.40;26.40;;;;;;5166069;27;46855;-21
2022/03/22 12:19:00;;;;;;;12.07;8.77;;;21.40;26.60;;;;;;5165804;27;47231;-20
2022/03/22 12:21:26;;;;;;;16.45;9.05;;;21.40;26.00;;;;;;5165529;27;49336;-20
2022/03/22 12:23:54;;;;;;;11.73;8.05;;;21.40;26.20;;;;;;5165745;27;47679;-20
2022/03/22 12:26:26;;;;;;;14.43;8.32;;;21.50;25.90;;;;;;5167396;27;46872;-21
2022/03/22 12:28:54;;;;;;;10.98;7.95;;;21.60;25.90;;;;;;5167524;27;47228;-21
2022/03/22 12:31:21;;;;;;;12.13;7.70;;;21.70;25.80;;;;;;5168175;27;46838;-21
2022/03/22 12:33:51;;;;;;;14.15;8.57;;;21.70;25.90;;;;;;5166935;27;47013;-21
2022/03/22 12:36:19;;;;;;;13.02;8.18;;;21.80;25.70;;;;;;5167935;27;46964;-20
2022/03/22 12:38:46;;;;;;;11.25;7.97;;;21.80;25.70;;;;;;5166996;27;46776;-20
2022/03/22 12:41:12;;;;;;;13.23;7.88;;;21.80;25.60;;;;;;5167315;27;49123;-20
2022/03/22 12:43:45;;;;;;;14.07;8.05;;;21.90;25.50;;;;;;5166056;27;46849;-20
2022/03/22 12:46:12;;;;;;;11.05;7.68;;;21.90;25.20;;;;;;5166451;27;46849;-21
2022/03/22 12:48:38;;;;;;;10.98;7.50;;;21.90;24.50;;;;;;5166592;27;47290;-21
2022/03/22 12:51:05;;;;;;;9.35;6.90;;;22.00;24.60;;;;;;5167499;27;48144;-20
2022/03/22 12:53:33;;;;;;;14.02;7.82;;;22.00;24.70;;;;;;5167186;27;47460;-20
2022/03/22 12:56:00;;;;;;;12.98;7.30;;;22.10;24.80;;;;;;5167857;27;46812;-21
2022/03/22 12:58:28;;;;;;;8.57;6.38;;;22.20;24.60;;;;;;5167771;27;47271;-21
2022/03/22 13:00:58;;;;;;;10.70;6.60;;;22.20;24.50;;;;;;5167590;27;47027;-20
2022/03/22 13:03:24;;;;;;;10.43;6.78;;;22.20;24.40;;;;;;5162599;27;46973;-21
2022/03/22 13:05:51;;;;;;;10.70;6.57;;;22.20;24.70;;;;;;5147695;27;46779;-19
2022/03/22 13:08:19;;;;;;;13.32;7.72;;;22.30;24.80;;;;;;5156086;27;47006;-20
2022/03/22 13:16:30;;;;;;;11.65;8.32;;;22.40;25.00;;;;;;5156193;27;47051;-22
2022/03/22 13:18:58;;;;;;;11.77;8.02;;;22.40;25.00;;;;;;5169344;27;47293;-21
2022/03/22 13:21:25;;;;;;;11.25;7.53;;;22.40;25.10;;;;;;5170752;27;47074;-21
2022/03/22 13:24:05;;;;;;;13.23;8.40;;;22.50;25.10;;;;;;5160183;27;48041;-20
2022/03/22 13:26:33;;;;;;;10.98;7.32;;;22.60;25.10;;;;;;5169319;27;47280;-21
2022/03/22 13:29:02;;;;;;;12.68;7.35;;;22.60;25.00;;;;;;5170873;27;47279;-21